createdAt,value
2019-01-29T07:09:21.658Z,-0.23
2019-01-29T07:10:04.924Z,-0.23
2019-01-29T07:10:23.063Z,-0.23
2019-01-29T07:12:22.847Z,-0.23
2019-01-29T07:18:37.275Z,-0.23
2019-01-29T07:24:54.202Z,-0.23
2019-01-29T07:25:06.901Z,-0.23
2019-01-29T07:25:47.856Z,-0.23
2019-01-29T07:26:12.363Z,-0.23
2019-01-29T07:29:08.850Z,-0.23
2019-01-29T07:30:08.767Z,-0.23
2019-01-29T07:57:31.227Z,0.5
2019-01-29T08:01:11.296Z,0.72
2019-01-29T08:11:37.010Z,1.63
2019-01-29T08:13:01.509Z,1.63
2019-01-29T08:13:36.921Z,1.63
2019-01-29T08:15:05.405Z,1.63
2019-01-29T08:20:04.295Z,1.84
2019-01-29T08:25:04.219Z,1.92
2019-01-29T08:30:05.835Z,1.55
2019-01-29T08:35:04.539Z,1.33
2019-01-29T08:40:04.219Z,1.41
2019-01-29T08:45:05.468Z,1.31
2019-01-29T08:50:04.630Z,1.38
2019-01-29T08:55:10.435Z,1.43
2019-01-29T09:00:06.751Z,1.52
2019-01-29T09:05:04.587Z,1.53
2019-01-29T09:10:04.284Z,1.62
2019-01-29T09:15:05.840Z,1.63
2019-01-29T09:20:05.003Z,1.47
2019-01-29T09:25:06.935Z,1.47
2019-01-29T09:30:05.398Z,1.54
2019-01-29T09:33:06.473Z,1.54
2019-01-29T09:34:07.380Z,1.55
2019-01-29T09:35:07.372Z,1.55
2019-01-29T09:36:06.931Z,1.55
2019-01-29T09:37:06.195Z,1.55
2019-01-29T09:38:06.079Z,1.55
2019-01-29T09:39:06.531Z,1.61
2019-01-29T09:40:07.434Z,1.61
2019-01-29T09:41:06.339Z,1.61
2019-01-29T09:42:07.536Z,1.61
2019-01-29T09:43:07.224Z,1.61
2019-01-29T09:44:07.475Z,1.66
2019-01-29T09:45:09.002Z,1.66
2019-01-29T09:46:06.762Z,1.66
2019-01-29T09:49:06.816Z,1.72
2019-01-29T09:54:07.103Z,1.92
2019-01-29T09:59:06.799Z,1.96
2019-01-29T10:03:07.823Z,2.06
2019-01-29T10:08:07.089Z,2.02
2019-01-29T10:13:06.915Z,2.16
2019-01-29T10:18:07.349Z,2.2
2019-01-29T10:23:06.665Z,2.19
2019-01-29T10:28:07.129Z,2.24
2019-01-29T10:33:06.231Z,2.38
2019-01-29T10:38:07.606Z,2.51
2019-01-29T10:43:06.603Z,2.58
2019-01-29T10:48:07.966Z,2.97
2019-01-29T10:53:06.289Z,3.56
2019-01-29T10:57:06.887Z,3.16
2019-01-29T11:02:05.971Z,2.95
2019-01-29T11:07:07.285Z,2.83
2019-01-29T11:12:06.001Z,3
2019-01-29T11:17:07.139Z,3.23
2019-01-29T11:22:06.453Z,3.06
2019-01-29T11:27:07.794Z,2.99
2019-01-29T11:32:06.032Z,2.89
2019-01-29T11:37:07.403Z,2.98
2019-01-29T11:42:06.363Z,3.2
2019-01-29T11:47:07.677Z,3.24
2019-01-29T11:51:06.513Z,3.56
2019-01-29T11:56:06.449Z,3.53
2019-01-29T12:01:06.439Z,3.41
2019-01-29T12:06:07.880Z,3.32
2019-01-29T12:11:06.645Z,3.31
2019-01-29T12:16:07.967Z,3.29
2019-01-29T12:21:06.344Z,3.67
2019-01-29T12:26:14.318Z,3.77
2019-01-29T12:31:05.903Z,3.58
2019-01-29T12:36:07.292Z,3.64
2019-01-29T12:40:06.357Z,3.48
2019-01-29T12:45:07.561Z,3.27
2019-01-29T12:50:06.861Z,3.09
2019-01-29T12:55:06.909Z,2.88
2019-01-29T13:00:08.072Z,2.79
2019-01-29T13:05:08.711Z,2.76
2019-01-29T13:10:06.305Z,2.72
2019-01-29T13:15:08.847Z,2.83
2019-01-29T13:20:06.860Z,2.8
2019-01-29T13:25:07.111Z,2.81
2019-01-29T13:30:07.439Z,2.79
2019-01-29T13:34:06.133Z,2.78
2019-01-29T13:39:07.180Z,2.68
2019-01-29T13:44:06.106Z,2.43
2019-01-29T13:49:06.410Z,2.29
2019-01-29T13:54:06.186Z,2.47
2019-01-29T13:59:06.855Z,2.53
2019-01-29T14:04:07.689Z,2.64
2019-01-29T14:09:06.484Z,2.67
2019-01-29T14:14:07.850Z,2.83
2019-01-29T14:19:05.902Z,2.88
2019-01-29T14:24:07.161Z,2.64
2019-01-29T14:28:07.040Z,2.5
2019-01-29T14:33:06.937Z,2.64
2019-01-29T14:38:06.556Z,2.87
2019-01-29T14:43:05.998Z,2.87
2019-01-29T14:48:06.706Z,2.5
2019-01-29T14:53:06.744Z,1.99
2019-01-29T14:58:06.453Z,1.86
2019-01-29T15:03:07.887Z,1.79
2019-01-29T15:08:06.131Z,1.72
2019-01-29T15:13:07.220Z,1.68
2019-01-29T15:17:07.275Z,1.57
2019-01-29T15:22:06.482Z,1.42
2019-01-29T15:27:07.060Z,1.04
2019-01-29T15:32:06.872Z,0.65
2019-01-29T15:37:06.593Z,0.51
2019-01-29T15:42:06.079Z,0.47
2019-01-29T15:47:06.780Z,0.52
2019-01-29T15:52:06.827Z,0.5
2019-01-29T15:57:15.261Z,0.58
2019-01-29T16:02:05.883Z,0.51
2019-01-29T16:07:06.506Z,0.47
2019-01-29T16:12:05.924Z,0.44
2019-01-29T16:16:07.655Z,0.39
2019-01-29T16:21:06.069Z,0.38
2019-01-29T16:26:07.437Z,0.37
2019-01-29T16:31:06.872Z,0.34
2019-01-29T16:36:07.200Z,0.33
2019-01-29T16:41:06.780Z,0.39
2019-01-29T16:46:06.985Z,0.43
2019-01-29T16:51:06.445Z,0.44
2019-01-29T16:56:07.802Z,0.51
2019-01-29T17:01:06.825Z,0.5
2019-01-29T17:06:06.434Z,0.52
2019-01-29T17:10:06.042Z,0.47
2019-01-29T17:15:08.589Z,0.43
2019-01-29T17:20:06.764Z,0.44
2019-01-29T17:25:07.039Z,0.47
2019-01-29T17:30:07.823Z,0.59
2019-01-29T17:35:07.052Z,0.69
2019-01-29T17:40:06.357Z,0.69
2019-01-29T17:45:07.988Z,0.68
2019-01-29T17:50:05.942Z,0.68
2019-01-29T17:55:06.628Z,0.63
2019-01-29T17:59:06.728Z,0.62
2019-01-29T18:04:06.843Z,0.57
2019-01-29T18:09:07.234Z,0.54
2019-01-29T18:14:06.896Z,0.52
2019-01-29T18:19:06.882Z,0.52
2019-01-29T18:24:07.209Z,0.51
2019-01-29T18:29:06.608Z,0.54
2019-01-29T18:34:07.941Z,0.58
2019-01-29T18:39:07.734Z,0.63
2019-01-29T18:44:06.342Z,0.66
2019-01-29T18:49:07.163Z,0.64
2019-01-29T18:53:06.633Z,0.63
2019-01-29T18:58:15.045Z,0.62
2019-01-29T19:03:06.531Z,0.59
2019-01-29T19:08:06.728Z,0.55
2019-01-29T19:13:06.242Z,0.55
2019-01-29T19:18:06.546Z,0.49
2019-01-29T19:23:07.200Z,0.5
2019-01-29T19:28:06.100Z,0.48
2019-01-29T19:33:06.580Z,0.44
2019-01-29T19:38:06.935Z,0.35
2019-01-29T19:43:06.415Z,0.17
2019-01-29T19:47:05.925Z,0.02
2019-01-29T19:52:07.317Z,-0.16
2019-01-29T19:57:06.667Z,-0.34
2019-01-29T20:02:06.917Z,-0.3
2019-01-29T20:07:06.778Z,-0.39
2019-01-29T20:12:06.608Z,-0.5
2019-01-29T20:17:06.494Z,-0.55
2019-01-29T20:22:07.136Z,-0.6
2019-01-29T20:27:06.061Z,-0.66
2019-01-29T20:32:06.982Z,-0.68
2019-01-29T20:37:06.932Z,-0.74
2019-01-29T20:41:07.657Z,-0.91
2019-01-29T20:46:06.813Z,-0.99
2019-01-29T20:51:07.142Z,-1.12
2019-01-29T20:56:06.559Z,-1.38
2019-01-29T21:01:06.444Z,-1.54
2019-01-29T21:06:06.354Z,-1.65
2019-01-29T21:11:06.611Z,-1.92
2019-01-29T21:16:06.327Z,-2.03
2019-01-29T21:21:07.081Z,-2.07
2019-01-29T21:26:05.971Z,-2.23
2019-01-29T21:31:07.533Z,-2.33
2019-01-29T21:35:06.342Z,-2.49
2019-01-29T21:40:06.739Z,-2.49
2019-01-29T21:45:09.061Z,-2.46
2019-01-29T21:50:11.416Z,-2.58
2019-01-29T21:55:06.079Z,-2.64
2019-01-29T22:00:08.991Z,-2.52
2019-01-29T22:05:05.911Z,-2.43
2019-01-29T22:10:06.617Z,-2.43
2019-01-29T22:15:07.830Z,-2.47
2019-01-29T22:20:06.219Z,-2.6
2019-01-29T22:25:06.853Z,-2.56
2019-01-29T22:29:06.919Z,-2.57
2019-01-29T22:34:06.750Z,-2.61
2019-01-29T22:39:07.447Z,-2.61
2019-01-29T22:44:06.768Z,-2.51
2019-01-29T22:49:08.085Z,-2.54
2019-01-29T22:54:06.288Z,-2.56
2019-01-29T22:59:07.652Z,-2.64
2019-01-29T23:04:06.698Z,-2.79
2019-01-29T23:09:07.081Z,-2.93
2019-01-29T23:14:06.489Z,-2.88
2019-01-29T23:18:06.607Z,-2.83
2019-01-29T23:23:07.363Z,-2.92
2019-01-29T23:28:07.577Z,-2.84
2019-01-29T23:33:07.729Z,-2.92
2019-01-29T23:38:06.618Z,-2.81
2019-01-29T23:43:07.605Z,-2.86
2019-01-29T23:48:06.929Z,-2.9
2019-01-29T23:53:07.527Z,-2.94
2019-01-29T23:58:07.583Z,-3.05
